LIPQ Airport Information

Runway Information
Runway 09 Length 9843 ft width 148 ft
Elevation 37 ft Threshold 656 ft Heading 90
Runway 27 Length 9843 ft Width 148 ft
Elevation 36 ft Threshold 0 ft Heading 270
Airport Frequencies
Type APP Name APP Frequency 119.175 MHZ
Type TWR Name TWR Frequency 130.2 MHZ
Airport Navaids
Type VOR-DME Name Ronchi Frequency 114200 KHZ
Type NDB Name Ronchi Frequency 396 KHZ
Airport Weather Information & NOTAM
ADDS - METARS form results

(1323 UTC 16 April 2021)
Data provider http://aviationweather.gov/metar/data/
 
METAR text: LIPQ 161250Z AUTO 29007KT 260V340 9999 NCD 14/M01 Q1019
Conditions at: LIPQ (RONCHI LEGIONARI, IT) observed 1250 UTC 16 April 2021
Temperature: 14.0°C (57°F)
Dewpoint: -1.0°C (30°F) [RH = 36%]
Pressure (altimeter): 30.09 inches Hg (1019.0 mb)
Winds: from the WNW (290 degrees) at 8 MPH (7 knots; 3.6 m/s)
Visibility: 6 or more miles (10+ km)
Ceiling: at least 12,000 feet AGL
Clouds: sky clear below 12,000 feet AGL
Weather: no significant weather observed at this time

Forecast for: LIPQ (RONCHI LEGIONARI, IT)
Text: TAF LIPQ 161100Z 1612/1712 06008KT CAVOK
Forecast period: 1200 UTC 16 April 2021 to 1200 UTC 17 April 2021
Forecast type: FROM: standard forecast or significant change
Winds: from the ENE (60 degrees) at 9 MPH (8 knots; 4.1 m/s)
Visibility: 6 or more miles (10+ km)
Ceiling: unknown
Clouds: missing
Weather: NSW  (no significant weather)